createdAt,value
2019-03-16T00:00:36.725Z,28.6
2019-03-16T00:01:26.366Z,28.5
2019-03-16T00:02:16.156Z,28.4
2019-03-16T00:03:06.479Z,28.3
2019-03-16T00:03:55.979Z,28.3
2019-03-16T00:04:46.011Z,28.2
2019-03-16T00:05:35.358Z,28.1
2019-03-16T00:06:25.930Z,27.8
2019-03-16T00:07:15.154Z,27.6
2019-03-16T00:08:05.248Z,27.4
2019-03-16T00:08:56.333Z,27.4
2019-03-16T00:09:47.218Z,27.3
2019-03-16T00:10:36.733Z,27.3
2019-03-16T00:11:26.505Z,27.2
2019-03-16T00:12:16.916Z,27.1
2019-03-16T00:13:06.988Z,27.1
2019-03-16T00:13:56.376Z,27.1
2019-03-16T00:14:46.456Z,27
2019-03-16T00:15:36.593Z,27
2019-03-16T00:16:26.883Z,26.6
2019-03-16T00:17:28.413Z,26.6
2019-03-16T00:18:06.728Z,26.4
2019-03-16T00:18:56.443Z,26.3
2019-03-16T00:19:47.320Z,26.3
2019-03-16T00:20:37.793Z,26.3
2019-03-16T00:21:26.717Z,26.3
2019-03-16T00:22:16.983Z,26.4
2019-03-16T00:23:08.045Z,26.7
2019-03-16T00:23:57.090Z,26.9
2019-03-16T00:24:47.165Z,27.1
2019-03-16T00:25:37.393Z,27.3
2019-03-16T00:26:27.293Z,27.4
2019-03-16T00:27:17.897Z,27.6
2019-03-16T00:28:07.668Z,27.8
2019-03-16T00:29:48.407Z,27.9
2019-03-16T00:30:37.170Z,28.1
2019-03-16T00:31:28.172Z,28.1
2019-03-16T00:32:24.272Z,28.2
2019-03-16T00:33:07.540Z,28.3
2019-03-16T00:33:58.227Z,28.4
2019-03-16T00:34:47.652Z,28.4
2019-03-16T00:35:37.481Z,28.5
2019-03-16T00:36:28.810Z,28.6
2019-03-16T00:37:18.899Z,28.6
2019-03-16T00:38:08.935Z,28.7
2019-03-16T00:38:59.067Z,28.7
2019-03-16T00:39:49.043Z,28.7
2019-03-16T00:40:39.150Z,28.6
2019-03-16T00:41:29.162Z,28.5
2019-03-16T00:42:19.624Z,28.4
2019-03-16T00:43:09.597Z,28.4
2019-03-16T00:43:59.059Z,28.3
2019-03-16T00:44:48.576Z,28.3
2019-03-16T00:45:38.924Z,27.9
2019-03-16T00:46:29.364Z,27.8
2019-03-16T00:47:18.496Z,27.6
2019-03-16T00:48:09.371Z,27.5
2019-03-16T00:48:59.707Z,27.4
2019-03-16T00:49:50.315Z,27.3
2019-03-16T00:50:39.336Z,27.3
2019-03-16T00:51:29.123Z,27.3
2019-03-16T00:52:19.736Z,27.2
2019-03-16T00:53:08.931Z,27.2
2019-03-16T00:53:59.273Z,27.1
2019-03-16T00:54:49.303Z,27.1
2019-03-16T00:55:39.348Z,26.8
2019-03-16T00:56:29.436Z,26.6
2019-03-16T00:57:19.273Z,26.8
2019-03-16T00:58:09.601Z,26.4
2019-03-16T00:58:59.826Z,26.3
2019-03-16T00:59:49.970Z,26.3
2019-03-16T01:00:39.768Z,26.4
2019-03-16T01:01:29.731Z,26.4
2019-03-16T01:02:37.151Z,26.7
2019-03-16T01:03:10.151Z,27
2019-03-16T01:04:00.233Z,27.1
2019-03-16T01:04:49.769Z,27.3
2019-03-16T01:05:39.545Z,27.5
2019-03-16T01:06:29.306Z,27.6
2019-03-16T01:07:19.105Z,27.8
2019-03-16T01:08:10.268Z,27.9
2019-03-16T01:09:00.571Z,27.9
2019-03-16T01:09:53.475Z,28.1
2019-03-16T01:10:40.710Z,28.2
2019-03-16T01:11:31.104Z,28.3
2019-03-16T01:12:20.885Z,28.3
2019-03-16T01:13:10.874Z,28.4
2019-03-16T01:14:00.650Z,28.5
2019-03-16T01:14:51.277Z,28.6
2019-03-16T01:15:40.527Z,28.6
2019-03-16T01:16:31.992Z,28.6
2019-03-16T01:17:20.724Z,28.7
2019-03-16T01:18:10.932Z,28.8
2019-03-16T01:19:01.600Z,28.7
2019-03-16T01:19:51.650Z,28.6
2019-03-16T01:20:41.357Z,28.6
2019-03-16T01:21:31.558Z,28.5
2019-03-16T01:22:21.525Z,28.4
2019-03-16T01:23:11.577Z,28.3
2019-03-16T01:24:01.909Z,28.3
2019-03-16T01:24:50.276Z,28.1
2019-03-16T01:25:42.336Z,27.8
2019-03-16T01:26:32.211Z,27.6
2019-03-16T01:27:22.961Z,27.4
2019-03-16T01:28:12.759Z,27.4
2019-03-16T01:29:02.534Z,27.3
2019-03-16T01:29:50.939Z,27.3
2019-03-16T01:30:41.364Z,27.3
2019-03-16T01:31:32.779Z,27.2
2019-03-16T01:32:22.286Z,27.1
2019-03-16T01:33:12.835Z,27.1
2019-03-16T01:34:02.707Z,27.1
2019-03-16T01:34:53.378Z,26.9
2019-03-16T01:35:43.016Z,26.6
2019-03-16T01:36:33.345Z,26.7
2019-03-16T01:37:21.561Z,26.5
2019-03-16T01:38:13.183Z,26.4
2019-03-16T01:39:02.420Z,26.4
2019-03-16T01:39:52.465Z,26.4
2019-03-16T01:40:42.956Z,26.4
2019-03-16T01:41:32.674Z,26.7
2019-03-16T01:42:22.179Z,26.9
2019-03-16T01:43:12.896Z,27.1
2019-03-16T01:44:01.731Z,27.3
2019-03-16T01:44:53.398Z,27.5
2019-03-16T01:45:42.998Z,27.5
2019-03-16T01:46:33.863Z,27.4
2019-03-16T01:47:23.833Z,27.2
2019-03-16T01:48:13.454Z,27.1
2019-03-16T01:49:03.957Z,27.1
2019-03-16T01:49:54.072Z,27.3
2019-03-16T01:50:44.393Z,27.3
2019-03-16T01:51:33.863Z,27.1
2019-03-16T01:52:23.423Z,27
2019-03-16T01:53:13.747Z,26.8
2019-03-16T01:54:03.899Z,26.7
2019-03-16T01:54:54.094Z,26.8
2019-03-16T01:55:44.210Z,27.1
2019-03-16T01:56:34.595Z,27.3
2019-03-16T01:57:24.365Z,27.5
2019-03-16T01:58:14.349Z,27.7
2019-03-16T01:59:54.164Z,27.9
2019-03-16T02:00:45.048Z,28.1
2019-03-16T02:01:35.135Z,28.1
2019-03-16T02:02:24.127Z,28.3
2019-03-16T02:03:15.012Z,28.4
2019-03-16T02:04:04.550Z,28.4
2019-03-16T02:04:54.592Z,28.5
2019-03-16T02:05:43.810Z,28.6
2019-03-16T02:06:35.004Z,28.6
2019-03-16T02:07:25.602Z,28.7
2019-03-16T02:08:15.117Z,28.8
2019-03-16T02:09:04.351Z,28.7
2019-03-16T02:09:54.639Z,28.6
2019-03-16T02:10:45.216Z,28.6
2019-03-16T02:11:34.710Z,28.5
2019-03-16T02:12:24.868Z,28.4
2019-03-16T02:13:14.924Z,28.3
2019-03-16T02:14:05.199Z,28.3
2019-03-16T02:14:55.299Z,28
2019-03-16T02:16:35.666Z,27.6
2019-03-16T02:17:25.274Z,27.5
2019-03-16T02:18:14.374Z,27.4
2019-03-16T02:19:05.297Z,27.4
2019-03-16T02:19:55.566Z,27.3
2019-03-16T02:20:45.896Z,27.3
2019-03-16T02:21:36.867Z,27.3
2019-03-16T02:22:25.733Z,27.2
2019-03-16T02:23:16.147Z,27.1
2019-03-16T02:24:05.704Z,27.1
2019-03-16T02:24:56.708Z,26.9
2019-03-16T02:25:46.580Z,26.7
2019-03-16T02:26:36.871Z,26.8
2019-03-16T02:27:27.023Z,26.5
2019-03-16T02:28:16.425Z,26.4
2019-03-16T02:29:06.779Z,26.4
2019-03-16T02:29:56.664Z,26.5
2019-03-16T02:30:45.868Z,26.6
2019-03-16T02:31:37.334Z,26.8
2019-03-16T02:32:25.640Z,27.1
2019-03-16T02:33:24.031Z,27.3
2019-03-16T02:34:06.162Z,27.5
2019-03-16T02:34:57.126Z,27.6
2019-03-16T02:35:46.706Z,27.8
2019-03-16T02:36:36.329Z,27.9
2019-03-16T02:37:27.242Z,28
2019-03-16T02:38:16.973Z,28.1
2019-03-16T02:39:07.952Z,28.3
2019-03-16T02:39:57.151Z,28.3
2019-03-16T02:40:47.405Z,28.4
2019-03-16T02:41:37.830Z,28.5
2019-03-16T02:42:28.303Z,28.6
2019-03-16T02:43:17.323Z,28.7
2019-03-16T02:44:11.985Z,28.7
2019-03-16T02:44:57.369Z,28.8
2019-03-16T02:45:47.199Z,28.8
2019-03-16T02:46:38.663Z,28.8
2019-03-16T02:47:27.847Z,28.6
2019-03-16T02:48:17.315Z,28.6
2019-03-16T02:49:07.545Z,28.5
2019-03-16T02:49:57.927Z,28.4
2019-03-16T02:50:48.157Z,28.3
2019-03-16T02:51:37.520Z,28.3
2019-03-16T02:52:28.340Z,28.1
2019-03-16T02:54:07.725Z,27.6
2019-03-16T02:54:58.607Z,27.6
2019-03-16T02:55:48.229Z,27.4
2019-03-16T02:56:39.118Z,27.4
2019-03-16T02:57:28.584Z,27.3
2019-03-16T02:58:18.526Z,27.3
2019-03-16T02:59:08.799Z,27.3
2019-03-16T02:59:58.984Z,27.2
2019-03-16T03:00:48.877Z,27.1
2019-03-16T03:01:38.950Z,27.1
2019-03-16T03:02:28.827Z,26.9
2019-03-16T03:03:36.104Z,26.6
2019-03-16T03:04:07.912Z,26.6
2019-03-16T03:07:41.348Z,26.4
2019-03-16T03:08:31.380Z,26.7
2019-03-16T03:09:20.599Z,26.9
2019-03-16T03:10:11.396Z,27.2
2019-03-16T03:11:01.271Z,27.4
2019-03-16T03:11:51.516Z,27.6
2019-03-16T03:12:41.751Z,27.7
2019-03-16T03:13:31.613Z,27.9
2019-03-16T03:14:22.110Z,28
2019-03-16T03:15:11.977Z,28.1
2019-03-16T03:16:01.927Z,28.2
2019-03-16T03:16:52.019Z,28.3
2019-03-16T03:17:41.998Z,28.4
2019-03-16T03:18:31.025Z,28.6
2019-03-16T03:19:21.647Z,28.6
2019-03-16T03:20:11.965Z,28.7
2019-03-16T03:21:01.963Z,28.7
2019-03-16T03:21:52.149Z,28.8
2019-03-16T03:22:42.952Z,28.8
2019-03-16T03:23:32.333Z,28.8
2019-03-16T03:24:21.998Z,28.7
2019-03-16T03:25:12.135Z,28.6
2019-03-16T03:26:02.390Z,28.5
2019-03-16T03:26:52.045Z,28.4
2019-03-16T03:27:42.458Z,28.3
2019-03-16T03:28:32.844Z,28.2
2019-03-16T03:29:22.862Z,27.9
2019-03-16T03:30:13.917Z,27.7
2019-03-16T03:31:03.635Z,27.6
2019-03-16T03:31:52.621Z,27.5
2019-03-16T03:32:44.371Z,27.4
2019-03-16T03:34:07.429Z,27.4
2019-03-16T03:34:23.260Z,27.3
2019-03-16T03:35:13.683Z,27.3
2019-03-16T03:36:03.055Z,27.3
2019-03-16T03:36:52.999Z,27.3
2019-03-16T03:37:42.965Z,27.2
2019-03-16T03:38:33.217Z,27.1
2019-03-16T03:39:22.471Z,26.7
2019-03-16T03:40:13.793Z,26.8
2019-03-16T03:41:08.941Z,26.6
2019-03-16T03:41:53.794Z,26.5
2019-03-16T03:42:44.386Z,26.5
2019-03-16T03:43:33.349Z,26.5
2019-03-16T03:44:24.351Z,26.6
2019-03-16T03:45:13.827Z,26.8
2019-03-16T03:46:04.102Z,27.1
2019-03-16T03:46:53.818Z,27.3
2019-03-16T03:47:43.750Z,27.5
2019-03-16T03:48:34.054Z,27.7
2019-03-16T03:50:14.037Z,27.9
2019-03-16T03:51:04.271Z,28.1
2019-03-16T03:51:54.163Z,28.2
2019-03-16T03:52:44.314Z,28.3
2019-03-16T03:53:33.710Z,28.4
2019-03-16T03:54:24.135Z,28.5
2019-03-16T03:55:14.927Z,28.6
2019-03-16T03:56:04.347Z,28.6
2019-03-16T03:56:54.246Z,28.4
2019-03-16T03:57:45.130Z,28.1
2019-03-16T03:58:34.150Z,28
2019-03-16T03:59:24.874Z,28.1
2019-03-16T04:00:14.686Z,28.1
2019-03-16T04:01:05.176Z,27.9
2019-03-16T04:01:54.593Z,27.8
2019-03-16T04:02:44.997Z,27.5
2019-03-16T04:03:35.298Z,27.3
2019-03-16T04:04:27.193Z,27.4
2019-03-16T04:05:15.403Z,27.6
2019-03-16T04:06:55.022Z,27.9
2019-03-16T04:07:45.422Z,28.1
2019-03-16T04:08:35.573Z,28.3
2019-03-16T04:09:25.290Z,28.4
2019-03-16T04:10:15.618Z,28.5
2019-03-16T04:11:05.542Z,28.6
2019-03-16T04:11:56.175Z,28.7
2019-03-16T04:12:45.942Z,28.8
2019-03-16T04:13:35.712Z,28.8
2019-03-16T04:14:25.651Z,28.9
2019-03-16T04:15:15.353Z,28.9
2019-03-16T04:16:05.940Z,28.8
2019-03-16T04:16:56.298Z,28.8
2019-03-16T04:17:46.145Z,28.7
2019-03-16T04:18:36.197Z,28.6
2019-03-16T04:19:26.462Z,28.5
2019-03-16T04:20:16.062Z,28.4
2019-03-16T04:21:05.665Z,28.1
2019-03-16T04:21:56.751Z,27.9
2019-03-16T04:23:36.364Z,27.7
2019-03-16T04:24:26.672Z,27.6
2019-03-16T04:25:30.989Z,27.6
2019-03-16T04:26:07.162Z,27.5
2019-03-16T04:26:56.540Z,27.4
2019-03-16T04:27:47.150Z,27.4
2019-03-16T04:28:36.097Z,27.4
2019-03-16T04:29:26.730Z,27.4
2019-03-16T04:30:17.329Z,27.3
2019-03-16T04:31:07.061Z,27
2019-03-16T04:31:57.037Z,26.7
2019-03-16T04:32:47.317Z,26.5
2019-03-16T04:33:37.416Z,26.4
2019-03-16T04:34:40.339Z,26.3
2019-03-16T04:35:17.194Z,26.2
2019-03-16T04:36:07.347Z,26.1
2019-03-16T04:36:57.565Z,26.1
2019-03-16T04:37:47.482Z,26
2019-03-16T04:38:37.420Z,26.1
2019-03-16T04:39:27.823Z,26.4
2019-03-16T04:40:18.025Z,26.3
2019-03-16T04:41:07.364Z,26.3
2019-03-16T04:41:56.612Z,26.3
2019-03-16T04:42:47.267Z,26.3
2019-03-16T04:43:36.087Z,26.4
2019-03-16T04:44:26.790Z,26.6
2019-03-16T04:45:17.617Z,26.8
2019-03-16T04:46:07.642Z,27.1
2019-03-16T04:46:57.189Z,27.3
2019-03-16T04:47:48.109Z,27.5
2019-03-16T04:48:38.067Z,27.6
2019-03-16T04:49:27.012Z,27.8
2019-03-16T04:50:18.181Z,27.9
2019-03-16T04:51:07.794Z,28
2019-03-16T04:51:57.981Z,28.1
2019-03-16T04:52:52.047Z,28.3
2019-03-16T04:53:38.714Z,28.3
2019-03-16T04:54:28.249Z,28.4
2019-03-16T04:55:18.127Z,28.5
2019-03-16T04:56:08.954Z,28.6
2019-03-16T04:56:59.209Z,28.6
2019-03-16T04:57:48.494Z,28.7
2019-03-16T04:58:38.630Z,28.8
2019-03-16T04:59:29.089Z,28.8
2019-03-16T05:00:19.058Z,28.8
2019-03-16T05:01:09.721Z,28.8
2019-03-16T05:01:58.853Z,28.8
2019-03-16T05:02:49.239Z,28.6
2019-03-16T05:03:39.500Z,28.6
2019-03-16T05:04:43.983Z,28.5
2019-03-16T05:05:19.051Z,28.4
2019-03-16T05:06:08.253Z,28.3
2019-03-16T05:06:59.381Z,27.9
2019-03-16T05:07:49.698Z,27.8
2019-03-16T05:08:39.120Z,27.6
2019-03-16T05:09:29.923Z,27.5
2019-03-16T05:10:19.573Z,27.4
2019-03-16T05:11:10.455Z,27.4
2019-03-16T05:11:59.975Z,27.3
2019-03-16T05:12:49.793Z,27.3
2019-03-16T05:13:38.775Z,27.3
2019-03-16T05:14:29.648Z,27.3
2019-03-16T05:15:19.445Z,27.2
2019-03-16T05:16:10.041Z,27.1
2019-03-16T05:17:00.032Z,26.7
2019-03-16T05:17:50.103Z,26.8
2019-03-16T05:18:40.716Z,26.6
2019-03-16T05:19:30.068Z,26.5
2019-03-16T05:20:20.312Z,26.5
2019-03-16T05:21:10.710Z,26.5
2019-03-16T05:22:00.452Z,26.6
2019-03-16T05:22:50.533Z,26.8
2019-03-16T05:23:40.913Z,27
2019-03-16T05:24:30.922Z,27.2
2019-03-16T05:25:20.650Z,27.4
2019-03-16T05:26:10.191Z,27.6
2019-03-16T05:27:01.084Z,27.8
2019-03-16T05:27:50.067Z,27.9
2019-03-16T05:28:40.862Z,28
2019-03-16T05:29:30.102Z,28.1
2019-03-16T05:30:21.227Z,28.3
2019-03-16T05:31:11.464Z,28.3
2019-03-16T05:32:01.279Z,28.4
2019-03-16T05:32:50.874Z,28.6
2019-03-16T05:33:41.524Z,28.6
2019-03-16T05:34:31.119Z,28.8
2019-03-16T05:35:21.371Z,28.8
2019-03-16T05:36:11.257Z,28.8
2019-03-16T05:37:04.967Z,28.8
2019-03-16T05:37:51.924Z,28.8
2019-03-16T05:38:41.190Z,28.8
2019-03-16T05:39:31.664Z,28.7
2019-03-16T05:40:21.414Z,28.6
2019-03-16T05:41:11.718Z,28.5
2019-03-16T05:42:05.060Z,28.4
2019-03-16T05:42:52.154Z,28.3
2019-03-16T05:43:42.531Z,28.1
2019-03-16T05:45:21.900Z,27.7
2019-03-16T05:46:12.114Z,27.6
2019-03-16T05:47:02.421Z,27.4
2019-03-16T05:47:52.198Z,27.4
2019-03-16T05:48:42.563Z,27.3
2019-03-16T05:49:32.373Z,27.3
2019-03-16T05:50:22.056Z,27.3
2019-03-16T05:51:12.526Z,27.3
2019-03-16T05:52:03.098Z,27.2
2019-03-16T05:52:52.059Z,27.1
2019-03-16T05:53:43.177Z,27
2019-03-16T05:54:33.083Z,26.7
2019-03-16T05:55:23.228Z,26.8
2019-03-16T05:56:13.103Z,26.6
2019-03-16T05:57:03.261Z,26.6
2019-03-16T05:57:53.240Z,26.6
2019-03-16T05:58:43.031Z,26.6
2019-03-16T05:59:33.044Z,26.6
2019-03-16T06:00:23.711Z,26.8
2019-03-16T06:01:13.463Z,27.1
2019-03-16T06:02:02.805Z,27.3
2019-03-16T06:02:53.307Z,27.5
2019-03-16T06:05:39.912Z,28
2019-03-16T06:06:33.732Z,28.1
2019-03-16T06:07:20.189Z,28.3
2019-03-16T06:08:11.022Z,28.3
2019-03-16T06:09:00.690Z,28.4
2019-03-16T06:09:50.262Z,28.6
2019-03-16T06:10:39.552Z,28.6
2019-03-16T06:11:30.397Z,28.7
2019-03-16T06:12:20.240Z,28.8
2019-03-16T06:13:10.837Z,28.8
2019-03-16T06:14:00.284Z,28.8
2019-03-16T06:14:51.557Z,28.8
2019-03-16T06:15:40.689Z,28.6
2019-03-16T06:16:30.737Z,28.6
2019-03-16T06:17:20.296Z,28.5
2019-03-16T06:18:14.362Z,28.4
2019-03-16T06:19:01.184Z,28.3
2019-03-16T06:19:50.708Z,28
2019-03-16T06:20:41.162Z,27.9
2019-03-16T06:21:31.376Z,27.7
2019-03-16T06:22:21.179Z,27.6
2019-03-16T06:23:12.339Z,27.6
2019-03-16T06:24:01.341Z,27.5
2019-03-16T06:24:50.979Z,27.4
2019-03-16T06:25:42.702Z,27.4
2019-03-16T06:26:31.098Z,27.3
2019-03-16T06:27:21.496Z,27.3
2019-03-16T06:28:12.049Z,27.3
2019-03-16T06:29:02.687Z,27.2
2019-03-16T06:29:52.556Z,26.8
2019-03-16T06:30:42.588Z,26.6
2019-03-16T06:31:31.731Z,26.4
2019-03-16T06:32:22.787Z,26.3
2019-03-16T06:33:12.123Z,26.3
2019-03-16T06:34:01.888Z,26.2
2019-03-16T06:34:52.257Z,26.1
2019-03-16T06:35:42.573Z,26
2019-03-16T06:36:32.711Z,25.9
2019-03-16T06:37:22.717Z,26.2
2019-03-16T06:38:12.776Z,26.4
2019-03-16T06:39:02.918Z,26.4
2019-03-16T06:39:52.333Z,26.3
2019-03-16T06:40:41.390Z,26.3
2019-03-16T06:41:32.725Z,26.3
2019-03-16T06:42:23.323Z,26.4
2019-03-16T06:43:13.390Z,26.7
2019-03-16T06:44:02.648Z,27
2019-03-16T06:44:53.050Z,27.2
2019-03-16T06:45:43.405Z,27.4
2019-03-16T06:46:33.585Z,27.6
2019-03-16T06:47:26.543Z,27.8
2019-03-16T06:48:12.459Z,27.9
2019-03-16T06:49:04.220Z,28
2019-03-16T06:49:53.655Z,28.1
2019-03-16T06:50:43.705Z,28.3
2019-03-16T06:51:34.284Z,28.4
2019-03-16T06:52:24.019Z,28.5
2019-03-16T06:53:12.972Z,28.6
2019-03-16T06:54:03.752Z,28.6
2019-03-16T06:54:53.689Z,28.6
2019-03-16T06:55:43.298Z,28.8
2019-03-16T06:56:33.835Z,28.9
2019-03-16T06:57:23.395Z,28.9
2019-03-16T06:58:14.159Z,29
2019-03-16T06:59:07.614Z,29.1
2019-03-16T06:59:53.837Z,29.1
2019-03-16T07:00:43.812Z,29.1
2019-03-16T07:01:34.445Z,28.9
2019-03-16T07:02:24.452Z,28.3
2019-03-16T07:05:48.062Z,27.4
2019-03-16T07:06:29.881Z,27.3
2019-03-16T07:07:20.589Z,27.3
2019-03-16T07:08:10.942Z,27.3
2019-03-16T07:09:00.376Z,27.3
2019-03-16T07:09:50.214Z,27.3
2019-03-16T07:10:40.774Z,27.3
2019-03-16T07:11:29.797Z,27.2
2019-03-16T07:12:20.389Z,27.2
2019-03-16T07:13:11.026Z,27.1
2019-03-16T07:14:00.854Z,27.1
2019-03-16T07:14:51.051Z,26.7
2019-03-16T07:15:41.180Z,26.6
2019-03-16T07:16:30.940Z,26.8
2019-03-16T07:17:19.854Z,26.4
2019-03-16T07:18:11.341Z,26.4
2019-03-16T07:19:08.950Z,26.4
2019-03-16T07:19:51.074Z,26.4
2019-03-16T07:20:41.583Z,26.6
2019-03-16T07:21:31.289Z,26.9
2019-03-16T07:22:21.603Z,27.1
2019-03-16T07:23:10.813Z,27.4
2019-03-16T07:24:01.198Z,27.6
2019-03-16T07:24:55.961Z,27.8
2019-03-16T07:25:41.905Z,27.9
2019-03-16T07:26:31.023Z,28.1
2019-03-16T07:27:36.230Z,28.2
2019-03-16T07:28:12.078Z,28.4
2019-03-16T07:29:01.755Z,28.4
2019-03-16T07:29:51.532Z,28.6
2019-03-16T07:30:44.368Z,28.6
2019-03-16T07:31:31.339Z,28.6
2019-03-16T07:32:22.046Z,28.6
2019-03-16T07:33:12.118Z,28.8
2019-03-16T07:34:01.883Z,28.8
2019-03-16T07:34:52.247Z,28.9
2019-03-16T07:35:42.557Z,28.9
2019-03-16T07:36:36.386Z,29
2019-03-16T07:37:22.340Z,29.1
2019-03-16T07:38:13.032Z,29.1
2019-03-16T07:39:02.013Z,29.1
2019-03-16T07:39:52.820Z,29.1
2019-03-16T07:40:43.255Z,29.2
2019-03-16T07:41:32.682Z,29.2
2019-03-16T07:42:23.373Z,29.1
2019-03-16T07:43:13.967Z,29.1
2019-03-16T07:44:03.644Z,29.1
2019-03-16T07:44:52.724Z,29.1
2019-03-16T07:45:42.964Z,29.1
2019-03-16T07:46:32.767Z,29.1
2019-03-16T07:47:22.794Z,29.1
2019-03-16T07:48:13.502Z,29
2019-03-16T07:49:03.517Z,28.9
2019-03-16T07:49:53.916Z,28.9
2019-03-16T07:50:43.152Z,28.9
2019-03-16T07:51:33.394Z,28.8
2019-03-16T07:52:22.383Z,28.8
2019-03-16T07:53:13.604Z,28.7
2019-03-16T07:54:03.821Z,28.4
2019-03-16T07:54:53.141Z,27.4
2019-03-16T07:55:47.656Z,27.2
2019-03-16T07:57:23.546Z,27.1
2019-03-16T07:58:14.207Z,26.6
2019-03-16T07:59:03.915Z,26.4
2019-03-16T07:59:54.241Z,26.4
2019-03-16T08:00:43.481Z,26.4
2019-03-16T08:01:33.783Z,26.8
2019-03-16T08:02:25.043Z,27.1
2019-03-16T08:03:13.361Z,27.3
2019-03-16T08:04:03.598Z,27.5
2019-03-16T08:04:53.854Z,27.7
2019-03-16T08:05:44.470Z,27.9
2019-03-16T08:06:37.687Z,28.1
2019-03-16T08:07:24.094Z,28.3
2019-03-16T08:08:13.806Z,28.3
2019-03-16T08:09:06.053Z,28.4
2019-03-16T08:09:54.215Z,28.4
2019-03-16T08:10:43.658Z,28.5
2019-03-16T08:11:34.383Z,28.5
2019-03-16T08:12:24.659Z,28.6
2019-03-16T08:13:13.700Z,28.6
2019-03-16T08:14:04.312Z,28.7
2019-03-16T08:14:55.005Z,28.7
2019-03-16T08:15:45.155Z,28.8
2019-03-16T08:16:35.120Z,28.8
2019-03-16T08:17:24.653Z,28.7
2019-03-16T08:18:17.615Z,28.8
2019-03-16T08:19:05.604Z,28.7
2019-03-16T08:19:54.675Z,28.8
2019-03-16T08:20:46.242Z,28.7
2019-03-16T08:21:36.432Z,28.7
2019-03-16T08:22:25.812Z,28.6
2019-03-16T08:23:15.877Z,28.6
2019-03-16T08:24:06.590Z,28.6
2019-03-16T08:24:56.555Z,28.6
2019-03-16T08:25:45.532Z,28.6
2019-03-16T08:26:35.845Z,28.5
2019-03-16T08:27:26.158Z,28.5
2019-03-16T08:28:15.920Z,28.4
2019-03-16T08:29:10.187Z,28.4
2019-03-16T08:29:56.612Z,28.4
2019-03-16T08:30:46.841Z,28.3
2019-03-16T08:31:36.461Z,28.3
2019-03-16T08:32:29.415Z,28.1
2019-03-16T08:33:16.027Z,27.3
2019-03-16T08:34:07.221Z,27.3
2019-03-16T08:34:56.114Z,28.1
2019-03-16T08:35:47.114Z,28.4
2019-03-16T08:36:37.221Z,27.3
2019-03-16T08:37:29.448Z,26.7
2019-03-16T08:38:16.674Z,26.4
2019-03-16T08:39:07.281Z,26.4
2019-03-16T08:39:57.643Z,26.6
2019-03-16T08:40:47.074Z,26.9
2019-03-16T08:41:37.269Z,27.3
2019-03-16T08:42:27.589Z,27.5
2019-03-16T08:43:15.804Z,27.7
2019-03-16T08:44:06.191Z,27.9
2019-03-16T08:44:57.487Z,28.1
2019-03-16T08:45:46.788Z,28.2
2019-03-16T08:46:36.291Z,28.3
2019-03-16T08:47:26.624Z,28.3
2019-03-16T08:48:31.504Z,28.5
2019-03-16T08:49:06.869Z,28.7
2019-03-16T08:49:57.513Z,28.8
2019-03-16T08:50:48.295Z,28.9
2019-03-16T08:51:37.351Z,29
2019-03-16T08:52:27.970Z,29.1
2019-03-16T08:53:18.056Z,29.1
2019-03-16T08:54:07.805Z,29.2
2019-03-16T08:54:57.903Z,29.2
2019-03-16T08:55:47.615Z,29.3
2019-03-16T08:56:37.705Z,29.3
2019-03-16T08:57:27.806Z,29.3
2019-03-16T08:58:18.501Z,29.3
2019-03-16T08:59:08.258Z,29.3
2019-03-16T08:59:58.244Z,29.2
2019-03-16T09:00:48.900Z,29.2
2019-03-16T09:01:38.344Z,29.1
2019-03-16T09:02:28.663Z,29.1
2019-03-16T09:03:18.231Z,29.1
2019-03-16T09:04:08.767Z,29
2019-03-16T09:04:58.010Z,28.9
2019-03-16T09:05:48.737Z,28.9
2019-03-16T09:06:38.764Z,28.9
2019-03-16T09:07:28.030Z,28.8
2019-03-16T09:08:19.420Z,28.8
2019-03-16T09:09:07.900Z,28.7
2019-03-16T09:09:59.167Z,27.9
2019-03-16T09:10:48.983Z,27.5
2019-03-16T09:11:39.586Z,27.9
2019-03-16T09:12:29.222Z,26.9
2019-03-16T09:13:18.877Z,26.6
2019-03-16T09:14:09.259Z,26.4
2019-03-16T09:14:59.870Z,26.3
2019-03-16T09:15:49.739Z,26.4
2019-03-16T09:16:39.485Z,26.8
2019-03-16T09:17:29.287Z,27.1
2019-03-16T09:18:19.201Z,27.4
2019-03-16T09:19:10.479Z,27.6
2019-03-16T09:20:49.670Z,28
2019-03-16T09:21:40.003Z,28.2
2019-03-16T09:22:33.719Z,28.3
2019-03-16T09:23:20.205Z,28.4
2019-03-16T09:24:09.986Z,28.6
2019-03-16T09:25:00.343Z,28.8
2019-03-16T09:25:50.408Z,28.9
2019-03-16T09:26:40.423Z,29.1
2019-03-16T09:27:41.753Z,29.3
2019-03-16T09:28:28.550Z,29.5
2019-03-16T09:29:23.514Z,29.6
2019-03-16T09:30:00.379Z,29.6
2019-03-16T09:30:50.397Z,29.7
2019-03-16T09:31:41.297Z,29.8
2019-03-16T09:32:30.200Z,29.8
2019-03-16T09:33:23.973Z,29.8
2019-03-16T09:34:10.430Z,29.8
2019-03-16T09:35:00.855Z,29.8
2019-03-16T09:35:50.342Z,29.8
2019-03-16T09:36:41.230Z,29.8
2019-03-16T09:37:30.859Z,29.7
2019-03-16T09:38:20.978Z,29.7
2019-03-16T09:39:11.234Z,29.6
2019-03-16T09:40:00.264Z,29.6
2019-03-16T09:40:51.157Z,29.5
2019-03-16T09:41:40.994Z,29.5
2019-03-16T09:42:30.443Z,29.4
2019-03-16T09:43:21.838Z,29.4
2019-03-16T09:44:12.223Z,29.3
2019-03-16T09:45:02.182Z,29.3
2019-03-16T09:45:50.631Z,29.1
2019-03-16T09:46:41.547Z,28.8
2019-03-16T09:47:31.284Z,27.7
2019-03-16T09:48:21.347Z,28.4
2019-03-16T09:49:12.044Z,28.9
2019-03-16T09:50:02.711Z,28.4
2019-03-16T09:51:06.187Z,27.2
2019-03-16T09:51:41.021Z,26.6
2019-03-16T09:52:32.289Z,26.4
2019-03-16T09:53:22.006Z,26.3
2019-03-16T09:54:12.597Z,26.6
2019-03-16T09:55:01.433Z,27
2019-03-16T09:55:52.473Z,27.3
2019-03-16T09:56:41.943Z,27.6
2019-03-16T09:57:32.023Z,27.8
2019-03-16T09:58:36.133Z,27.9
2019-03-16T09:59:12.120Z,28.1
2019-03-16T10:00:02.483Z,28.3
2019-03-16T10:00:51.977Z,28.5
2019-03-16T10:01:41.905Z,28.8
2019-03-16T10:02:32.854Z,29
2019-03-16T10:03:22.392Z,29.2
2019-03-16T10:04:12.481Z,29.3
2019-03-16T10:06:39.764Z,29.6
2019-03-16T10:07:30.849Z,29.7
2019-03-16T10:08:23.704Z,29.8
2019-03-16T10:09:10.176Z,29.8
2019-03-16T10:10:00.881Z,29.8
2019-03-16T10:10:50.311Z,29.8
2019-03-16T10:11:40.671Z,29.8
2019-03-16T10:12:30.752Z,29.8
2019-03-16T10:13:20.279Z,29.8
2019-03-16T10:14:11.071Z,29.7
2019-03-16T10:15:00.262Z,29.7
2019-03-16T10:15:50.628Z,29.6
2019-03-16T10:16:41.074Z,29.6
2019-03-16T10:17:31.094Z,29.5
2019-03-16T10:18:21.486Z,29.4
2019-03-16T10:19:10.965Z,29.4
2019-03-16T10:20:00.356Z,29.3
2019-03-16T10:20:50.700Z,29.3
2019-03-16T10:21:40.866Z,29.2
2019-03-16T10:22:32.053Z,28.8
2019-03-16T10:23:21.473Z,27.7
2019-03-16T10:24:11.918Z,28.3
2019-03-16T10:25:01.099Z,28.8
2019-03-16T10:25:51.214Z,27.3
2019-03-16T10:26:44.108Z,26.6
2019-03-16T10:27:30.191Z,26.3
2019-03-16T10:28:21.616Z,26.2
2019-03-16T10:29:10.942Z,26.4
2019-03-16T10:30:01.055Z,26.7
2019-03-16T10:30:50.925Z,27.1
2019-03-16T10:31:41.570Z,27.4
2019-03-16T10:32:31.148Z,27.6
2019-03-16T10:34:12.060Z,27.9
2019-03-16T10:35:01.442Z,28.2
2019-03-16T10:35:51.342Z,28.5
2019-03-16T10:36:41.482Z,28.9
2019-03-16T10:37:32.589Z,29.2
2019-03-16T10:38:22.229Z,29.4
2019-03-16T10:39:12.190Z,29.7
2019-03-16T10:40:03.079Z,29.9
2019-03-16T10:40:52.429Z,30
2019-03-16T10:41:41.909Z,30.1
2019-03-16T10:42:33.699Z,30.2
2019-03-16T10:43:22.385Z,30.2
2019-03-16T10:44:12.925Z,30.3
2019-03-16T10:45:03.187Z,30.3
2019-03-16T10:45:52.643Z,30.2
2019-03-16T10:46:43.213Z,30.2
2019-03-16T10:47:32.339Z,30.2
2019-03-16T10:48:22.952Z,30.1
2019-03-16T10:49:13.114Z,30.1
2019-03-16T10:50:03.732Z,30.1
2019-03-16T10:50:53.356Z,30
2019-03-16T10:51:43.026Z,29.9
2019-03-16T10:52:32.676Z,29.9
2019-03-16T10:53:23.859Z,29.9
2019-03-16T10:54:13.761Z,29.8
2019-03-16T10:55:03.936Z,29.7
2019-03-16T10:55:53.736Z,29.6
2019-03-16T10:56:44.626Z,29.6
2019-03-16T10:57:33.933Z,29.4
2019-03-16T10:58:24.240Z,29.4
2019-03-16T10:59:13.734Z,28.3
2019-03-16T11:00:03.541Z,28.1
2019-03-16T11:00:54.168Z,28.8
2019-03-16T11:01:43.908Z,27.6
2019-03-16T11:02:34.809Z,26.8
2019-03-16T11:03:23.765Z,26.4
2019-03-16T11:04:13.337Z,26.3
2019-03-16T11:05:03.413Z,26.3
2019-03-16T11:05:54.528Z,26.6
2019-03-16T11:06:44.857Z,26.9
2019-03-16T11:07:33.751Z,27.3
2019-03-16T11:08:24.715Z,27.5
2019-03-16T11:09:14.228Z,27.8
2019-03-16T11:10:03.138Z,27.9
2019-03-16T11:10:54.898Z,28
2019-03-16T11:11:44.745Z,28.2
2019-03-16T11:12:35.221Z,28.4
2019-03-16T11:13:24.608Z,28.6
2019-03-16T11:14:14.851Z,28.8
2019-03-16T11:15:04.587Z,29
2019-03-16T11:15:55.028Z,29.2
2019-03-16T11:16:46.162Z,29.3
2019-03-16T11:17:49.645Z,29.5
2019-03-16T11:18:25.087Z,29.6
2019-03-16T11:19:15.798Z,29.7
2019-03-16T11:20:06.007Z,29.7
2019-03-16T11:20:55.322Z,29.8
2019-03-16T11:21:45.373Z,29.8
2019-03-16T11:22:35.504Z,29.8
2019-03-16T11:23:25.762Z,29.8
2019-03-16T11:24:16.160Z,29.8
2019-03-16T11:25:06.340Z,29.8
2019-03-16T11:25:56.249Z,29.8